createdAt,value
2018-12-20T00:00:15.104Z,43.05
2018-12-20T00:00:47.764Z,43.40
2018-12-20T00:01:20.463Z,43.60
2018-12-20T00:01:53.349Z,45.25
2018-12-20T00:02:25.963Z,46.60
2018-12-20T00:02:58.654Z,42.88
2018-12-20T00:03:31.509Z,45.98
2018-12-20T00:04:04.208Z,46.02
2018-12-20T00:04:36.784Z,45.50
2018-12-20T00:05:09.373Z,38.88
2018-12-20T00:05:41.996Z,46.13
2018-12-20T00:06:14.667Z,45.40
2018-12-20T00:06:47.435Z,42.08
2018-12-20T00:07:20.081Z,49.45
2018-12-20T00:07:52.803Z,50.08
2018-12-20T00:08:25.384Z,43.33
2018-12-20T00:08:58.488Z,43.55
2018-12-20T00:09:31.183Z,48.40
2018-12-20T00:10:05.653Z,43.92
2018-12-20T00:10:38.415Z,44.90
2018-12-20T00:11:11.031Z,45.00
2018-12-20T00:11:43.812Z,48.35
2018-12-20T00:12:16.444Z,42.38
2018-12-20T00:12:49.017Z,45.23
2018-12-20T00:13:21.849Z,47.85
2018-12-20T00:13:54.721Z,40.88
2018-12-20T00:14:30.088Z,50.05
2018-12-20T00:15:02.171Z,44.10
2018-12-20T00:15:34.896Z,43.40
2018-12-20T00:16:07.561Z,43.08
2018-12-20T00:16:40.285Z,45.73
2018-12-20T00:17:18.408Z,42.33
2018-12-20T00:17:51.564Z,38.90
2018-12-20T00:18:24.307Z,46.13
2018-12-20T00:18:56.979Z,46.55
2018-12-20T00:19:29.552Z,41.25
2018-12-20T00:20:02.394Z,44.98
2018-12-20T00:20:35.030Z,50.48
2018-12-20T00:21:07.666Z,43.50
2018-12-20T00:21:40.389Z,49.05
2018-12-20T00:22:13.058Z,36.77
2018-12-20T00:22:45.652Z,44.55
2018-12-20T00:23:18.243Z,46.18
2018-12-20T00:23:50.856Z,46.83
2018-12-20T00:24:23.688Z,46.58
2018-12-20T00:24:56.317Z,46.42
2018-12-20T00:25:29.039Z,43.52
2018-12-20T00:26:01.788Z,45.48
2018-12-20T00:26:34.465Z,44.48
2018-12-20T00:27:07.232Z,43.73
2018-12-20T00:27:39.843Z,42.50
2018-12-20T00:28:12.602Z,45.73
2018-12-20T00:28:45.516Z,48.08
2018-12-20T00:29:18.228Z,48.68
2018-12-20T00:29:50.808Z,44.00
2018-12-20T00:30:23.408Z,49.42
2018-12-20T00:30:56.034Z,50.50
2018-12-20T00:31:28.910Z,50.10
2018-12-20T00:32:01.743Z,44.45
2018-12-20T00:32:34.468Z,51.02
2018-12-20T00:33:07.195Z,50.30
2018-12-20T00:33:39.930Z,44.95
2018-12-20T00:34:12.791Z,50.85
2018-12-20T00:34:45.413Z,43.45
2018-12-20T00:35:18.080Z,49.05
2018-12-20T00:35:50.802Z,47.38
2018-12-20T00:36:23.527Z,50.85
2018-12-20T00:36:56.201Z,47.10
2018-12-20T00:37:28.975Z,52.00
2018-12-20T00:38:01.669Z,48.48
2018-12-20T00:38:34.302Z,47.67
2018-12-20T00:39:07.438Z,45.63
2018-12-20T00:40:13.212Z,45.40
2018-12-20T00:41:01.057Z,44.93
2018-12-20T00:41:49.867Z,49.00
2018-12-20T00:42:23.574Z,46.18
2018-12-20T00:42:56.374Z,42.65
2018-12-20T00:43:29.110Z,40.60
2018-12-20T00:44:03.449Z,47.80
2018-12-20T00:44:43.586Z,51.50
2018-12-20T00:45:23.473Z,45.90
2018-12-20T00:45:56.070Z,50.80
2018-12-20T00:46:28.656Z,48.00
2018-12-20T00:47:02.023Z,45.52
2018-12-20T00:47:35.299Z,42.85
2018-12-20T00:48:08.655Z,47.98
2018-12-20T00:48:41.712Z,52.48
2018-12-20T00:49:14.399Z,44.95
2018-12-20T00:49:47.589Z,48.52
2018-12-20T00:50:20.456Z,43.78
2018-12-20T00:50:53.160Z,48.70
2018-12-20T00:51:26.197Z,46.20
2018-12-20T00:51:58.785Z,46.80
2018-12-20T00:52:31.736Z,42.30
2018-12-20T00:53:04.536Z,49.20
2018-12-20T00:53:37.880Z,52.30
2018-12-20T00:54:10.649Z,48.52
2018-12-20T00:54:43.673Z,45.65
2018-12-20T00:55:16.906Z,52.33
2018-12-20T00:55:49.605Z,46.90
2018-12-20T00:56:35.358Z,47.27
2018-12-20T00:57:10.902Z,42.95
2018-12-20T00:58:01.131Z,48.38
2018-12-20T01:00:43.114Z,43.15
2018-12-20T01:01:15.816Z,49.08
2018-12-20T01:01:48.631Z,45.92
2018-12-20T01:02:21.437Z,51.28
2018-12-20T01:02:55.764Z,53.75
2018-12-20T01:03:28.597Z,47.90
2018-12-20T01:05:15.718Z,50.25
2018-12-20T01:05:53.381Z,49.55
2018-12-20T01:06:26.249Z,51.05
2018-12-20T01:06:58.897Z,47.62
2018-12-20T01:07:31.701Z,45.17
2018-12-20T01:08:09.711Z,45.10
2018-12-20T01:08:42.385Z,48.08
2018-12-20T01:09:17.108Z,47.98
2018-12-20T01:09:49.801Z,46.30
2018-12-20T01:10:29.330Z,49.93
2018-12-20T01:11:02.499Z,46.48
2018-12-20T01:11:35.436Z,47.45
2018-12-20T01:12:19.130Z,44.50
2018-12-20T01:13:06.723Z,45.65
2018-12-20T01:13:45.102Z,46.40
2018-12-20T01:14:32.072Z,45.20
2018-12-20T01:15:05.726Z,45.60
2018-12-20T01:15:38.655Z,44.13
2018-12-20T01:16:11.223Z,42.05
2018-12-20T01:16:43.807Z,46.18
2018-12-20T01:17:18.490Z,45.10
2018-12-20T01:17:51.296Z,47.30
2018-12-20T01:18:23.987Z,47.78
2018-12-20T01:19:00.329Z,43.60
2018-12-20T01:19:33.646Z,45.75
2018-12-20T01:20:14.973Z,45.25
2018-12-20T01:20:47.656Z,42.45
2018-12-20T01:21:20.280Z,44.80
2018-12-20T01:21:54.779Z,43.83
2018-12-20T01:22:27.440Z,46.10
2018-12-20T01:23:00.719Z,37.75
2018-12-20T01:23:35.339Z,40.83
2018-12-20T01:24:10.948Z,46.10
2018-12-20T01:24:43.931Z,42.62
2018-12-20T01:25:16.625Z,43.40
2018-12-20T01:27:19.320Z,42.10
2018-12-20T01:27:52.368Z,49.40
2018-12-20T01:28:25.307Z,47.75
2018-12-20T01:28:57.926Z,45.03
2018-12-20T01:29:30.665Z,41.13
2018-12-20T01:30:04.481Z,44.40
2018-12-20T01:30:37.146Z,44.42
2018-12-20T01:31:10.366Z,46.18
2018-12-20T01:31:43.055Z,42.93
2018-12-20T01:32:15.627Z,42.25
2018-12-20T01:32:48.372Z,45.83
2018-12-20T01:33:21.176Z,39.40
2018-12-20T01:33:53.938Z,44.95
2018-12-20T01:34:26.645Z,40.38
2018-12-20T01:34:59.354Z,46.73
2018-12-20T01:35:32.014Z,47.10
2018-12-20T01:36:04.621Z,43.87
2018-12-20T01:36:37.264Z,47.90
2018-12-20T01:37:10.076Z,42.38
2018-12-20T01:37:42.840Z,46.05
2018-12-20T01:38:15.612Z,45.03
2018-12-20T01:38:48.324Z,46.45
2018-12-20T01:39:21.000Z,44.73
2018-12-20T01:39:53.970Z,41.08
2018-12-20T01:40:26.615Z,46.70
2018-12-20T01:40:59.368Z,43.38
2018-12-20T01:41:32.016Z,49.53
2018-12-20T01:42:04.780Z,43.42
2018-12-20T01:42:37.464Z,43.25
2018-12-20T01:43:10.163Z,40.78
2018-12-20T01:43:42.763Z,45.20
2018-12-20T01:44:15.445Z,40.92
2018-12-20T01:44:53.501Z,41.98
2018-12-20T01:45:22.969Z,40.83
2018-12-20T01:45:55.634Z,41.13
2018-12-20T01:46:28.303Z,47.98
2018-12-20T01:47:00.928Z,50.00
2018-12-20T01:47:33.690Z,41.23
2018-12-20T01:48:06.379Z,47.30
2018-12-20T01:48:39.151Z,42.60
2018-12-20T01:49:11.855Z,45.98
2018-12-20T01:49:44.535Z,47.05
2018-12-20T01:50:17.206Z,41.40
2018-12-20T01:50:51.361Z,47.85
2018-12-20T01:53:00.127Z,42.15
2018-12-20T01:53:33.547Z,40.48
2018-12-20T01:54:07.324Z,38.53
2018-12-20T01:54:40.700Z,41.65
2018-12-20T01:55:13.897Z,42.25
2018-12-20T01:55:47.057Z,41.13
2018-12-20T01:56:20.173Z,40.98
2018-12-20T01:56:53.253Z,40.78
2018-12-20T01:57:26.383Z,39.78
2018-12-20T01:57:59.493Z,45.58
2018-12-20T01:58:32.960Z,44.48
2018-12-20T01:59:06.198Z,44.53
2018-12-20T01:59:39.674Z,41.35
2018-12-20T02:00:13.010Z,42.50
2018-12-20T02:00:46.383Z,38.88
2018-12-20T02:01:19.697Z,43.55
2018-12-20T02:01:52.982Z,43.83
2018-12-20T02:02:26.188Z,40.40
2018-12-20T02:02:59.578Z,44.77
2018-12-20T02:03:32.794Z,41.45
2018-12-20T02:04:05.997Z,43.78
2018-12-20T02:04:39.197Z,45.12
2018-12-20T02:05:12.298Z,42.83
2018-12-20T02:05:45.797Z,39.90
2018-12-20T02:06:19.274Z,40.80
2018-12-20T02:06:52.577Z,48.58
2018-12-20T02:07:25.787Z,45.85
2018-12-20T02:07:59.246Z,41.68
2018-12-20T02:08:32.491Z,41.73
2018-12-20T02:09:08.280Z,39.73
2018-12-20T02:09:42.702Z,42.23
2018-12-20T02:10:15.811Z,45.52
2018-12-20T02:10:50.063Z,46.75
2018-12-20T02:11:24.649Z,48.87
2018-12-20T02:11:57.894Z,44.75
2018-12-20T02:12:32.150Z,41.00
2018-12-20T02:13:05.182Z,47.23
2018-12-20T02:13:38.286Z,46.90
2018-12-20T02:14:11.957Z,41.15
2018-12-20T02:14:51.778Z,42.45
2018-12-20T02:15:30.669Z,45.65
2018-12-20T02:16:03.801Z,41.95
2018-12-20T02:16:36.945Z,43.45
2018-12-20T02:17:10.158Z,36.58
2018-12-20T02:17:43.559Z,41.68
2018-12-20T02:18:17.578Z,40.92
2018-12-20T02:18:50.896Z,44.90
2018-12-20T02:19:23.974Z,42.78
2018-12-20T02:19:57.685Z,42.17
2018-12-20T02:20:30.825Z,45.52
2018-12-20T02:21:03.987Z,41.30
2018-12-20T02:21:37.412Z,44.58
2018-12-20T02:22:10.657Z,39.65
2018-12-20T02:22:43.804Z,42.13
2018-12-20T02:23:16.968Z,47.05
2018-12-20T02:23:50.234Z,50.10
2018-12-20T02:24:23.845Z,45.33
2018-12-20T02:24:57.006Z,52.30
2018-12-20T02:25:30.177Z,44.33
2018-12-20T02:26:03.559Z,39.92
2018-12-20T02:26:37.496Z,47.03
2018-12-20T02:27:10.726Z,39.63
2018-12-20T02:27:44.055Z,45.23
2018-12-20T02:28:17.128Z,44.63
2018-12-20T02:28:50.408Z,42.58
2018-12-20T02:29:23.645Z,43.02
2018-12-20T02:29:57.009Z,46.68
2018-12-20T02:30:31.459Z,38.02
2018-12-20T02:31:05.483Z,48.80
2018-12-20T02:31:38.790Z,42.03
2018-12-20T02:32:12.536Z,50.10
2018-12-20T02:32:45.858Z,48.78
2018-12-20T02:33:19.087Z,46.88
2018-12-20T02:33:52.278Z,43.40
2018-12-20T02:34:25.473Z,41.98
2018-12-20T02:34:58.902Z,42.20
2018-12-20T02:35:32.145Z,49.35
2018-12-20T02:36:05.308Z,44.73
2018-12-20T02:36:39.356Z,45.25
2018-12-20T02:37:12.581Z,45.08
2018-12-20T02:37:46.955Z,44.98
2018-12-20T02:38:20.071Z,48.13
2018-12-20T02:38:53.365Z,44.67
2018-12-20T02:39:26.597Z,45.10
2018-12-20T02:40:00.308Z,41.85
2018-12-20T02:40:34.151Z,51.18
2018-12-20T02:41:08.923Z,44.70
2018-12-20T02:41:42.129Z,49.13
2018-12-20T02:42:15.535Z,53.92
2018-12-20T02:42:48.831Z,47.43
2018-12-20T02:43:21.965Z,47.43
2018-12-20T02:43:55.075Z,44.95
2018-12-20T02:44:28.962Z,46.58
2018-12-20T02:45:10.470Z,50.12
2018-12-20T02:45:37.273Z,48.70
2018-12-20T02:46:11.063Z,49.00
2018-12-20T02:46:44.587Z,44.15
2018-12-20T02:47:17.958Z,46.70
2018-12-20T02:47:51.277Z,47.65
2018-12-20T02:48:25.138Z,51.02
2018-12-20T02:48:58.439Z,44.70
2018-12-20T02:49:31.545Z,40.70
2018-12-20T02:50:05.238Z,48.38
2018-12-20T02:50:38.612Z,52.20
2018-12-20T02:51:11.933Z,49.38
2018-12-20T02:51:45.181Z,50.35
2018-12-20T02:52:18.202Z,49.50
2018-12-20T02:52:51.484Z,54.35
2018-12-20T02:53:24.796Z,47.55
2018-12-20T02:53:58.045Z,49.40
2018-12-20T02:54:32.203Z,41.73
2018-12-20T02:55:05.857Z,44.48
2018-12-20T02:55:39.160Z,47.70
2018-12-20T02:56:12.332Z,46.05
2018-12-20T02:56:45.505Z,52.73
2018-12-20T02:57:18.656Z,46.15
2018-12-20T02:57:51.721Z,50.05
2018-12-20T02:58:24.991Z,52.38
2018-12-20T02:58:58.299Z,45.95
2018-12-20T02:59:31.683Z,46.45
2018-12-20T03:00:05.243Z,48.28
2018-12-20T03:00:38.429Z,45.78
2018-12-20T03:01:11.784Z,54.88
2018-12-20T03:01:44.928Z,48.68
2018-12-20T03:02:18.577Z,51.90
2018-12-20T03:02:51.731Z,48.13
2018-12-20T03:03:24.683Z,49.53
2018-12-20T03:03:57.893Z,49.42
2018-12-20T03:04:31.722Z,49.93
2018-12-20T03:05:05.283Z,55.88
2018-12-20T03:05:38.476Z,48.20
2018-12-20T03:06:11.688Z,49.42
2018-12-20T03:06:45.149Z,47.38
2018-12-20T03:07:19.531Z,52.60
2018-12-20T03:07:52.776Z,47.55
2018-12-20T03:08:26.005Z,50.08
2018-12-20T03:09:00.037Z,50.45
2018-12-20T03:09:33.322Z,49.75
2018-12-20T03:10:06.731Z,51.77
2018-12-20T03:10:40.835Z,49.98
2018-12-20T03:11:14.028Z,51.25
2018-12-20T03:11:47.402Z,50.60
2018-12-20T03:12:20.841Z,55.25
2018-12-20T03:12:54.033Z,53.30
2018-12-20T03:13:29.642Z,53.75
2018-12-20T03:14:03.418Z,49.93
2018-12-20T03:14:36.723Z,55.35
2018-12-20T03:15:09.863Z,53.48
2018-12-20T03:15:43.030Z,48.00
2018-12-20T03:16:16.391Z,57.33
2018-12-20T03:16:49.887Z,52.95
2018-12-20T03:17:23.486Z,52.73
2018-12-20T03:17:56.695Z,45.60
2018-12-20T03:18:30.420Z,51.63
2018-12-20T03:19:03.581Z,51.30
2018-12-20T03:19:37.582Z,47.30
2018-12-20T03:20:10.967Z,52.65
2018-12-20T03:20:44.330Z,48.15
2018-12-20T03:21:17.376Z,52.40
2018-12-20T03:21:50.617Z,50.17
2018-12-20T03:22:24.573Z,49.77
2018-12-20T03:22:57.661Z,48.73
2018-12-20T03:23:30.858Z,51.00
2018-12-20T03:24:04.010Z,49.48
2018-12-20T03:24:37.062Z,53.75
2018-12-20T03:25:11.256Z,49.53
2018-12-20T03:25:44.667Z,51.10
2018-12-20T03:26:18.063Z,52.30
2018-12-20T03:26:51.403Z,55.10
2018-12-20T03:27:24.646Z,53.70
2018-12-20T03:27:58.088Z,51.68
2018-12-20T03:28:31.472Z,56.30
2018-12-20T03:29:04.577Z,54.70
2018-12-20T03:29:37.842Z,62.78
2018-12-20T03:30:11.672Z,49.00
2018-12-20T03:30:45.506Z,57.00
2018-12-20T03:31:19.832Z,59.55
2018-12-20T03:31:53.243Z,58.85
2018-12-20T03:32:27.164Z,56.55
2018-12-20T03:33:00.476Z,52.35
2018-12-20T03:33:33.906Z,53.30
2018-12-20T03:34:07.953Z,52.67
2018-12-20T03:34:41.263Z,52.38
2018-12-20T03:35:14.913Z,53.60
2018-12-20T03:35:48.290Z,52.20
2018-12-20T03:36:21.937Z,57.75
2018-12-20T03:36:55.213Z,52.60
2018-12-20T03:37:28.272Z,55.73
2018-12-20T03:38:02.330Z,59.75
2018-12-20T03:38:35.412Z,56.63
2018-12-20T03:39:08.601Z,56.08
2018-12-20T03:39:42.804Z,58.42
2018-12-20T03:40:16.276Z,56.42
2018-12-20T03:40:49.466Z,54.88
2018-12-20T03:41:22.625Z,56.23
2018-12-20T03:41:56.600Z,59.80
2018-12-20T03:42:34.820Z,53.30
2018-12-20T03:43:08.243Z,52.10
2018-12-20T03:43:42.777Z,58.15
2018-12-20T03:44:15.889Z,58.35
2018-12-20T03:44:48.992Z,61.73
2018-12-20T03:45:28.625Z,76.53
2018-12-20T03:45:58.488Z,60.50
2018-12-20T03:46:31.584Z,66.10
2018-12-20T03:47:04.643Z,60.48
2018-12-20T03:47:37.713Z,60.23
2018-12-20T03:48:11.858Z,53.20
2018-12-20T03:48:45.235Z,57.90
2018-12-20T03:49:18.452Z,60.10
2018-12-20T03:49:51.722Z,65.42
2018-12-20T03:50:25.058Z,55.17
2018-12-20T03:50:58.331Z,55.12
2018-12-20T03:51:31.737Z,58.02
2018-12-20T03:52:04.855Z,57.35
2018-12-20T03:52:38.047Z,59.13
2018-12-20T03:53:11.339Z,60.23
2018-12-20T03:53:45.335Z,56.98
2018-12-20T03:54:18.489Z,53.80
2018-12-20T03:54:51.663Z,60.35
2018-12-20T03:55:25.003Z,61.68
2018-12-20T03:55:58.188Z,54.33
2018-12-20T03:56:31.377Z,53.25
2018-12-20T03:57:04.474Z,55.30
2018-12-20T03:57:37.532Z,56.53
2018-12-20T03:58:10.998Z,54.35
2018-12-20T03:58:44.134Z,58.65
2018-12-20T03:59:17.987Z,57.70
2018-12-20T03:59:51.109Z,58.48
2018-12-20T04:00:24.299Z,55.25
2018-12-20T04:00:57.663Z,57.88
2018-12-20T04:01:30.774Z,54.27
2018-12-20T04:02:03.937Z,59.03
2018-12-20T04:02:37.187Z,56.35
2018-12-20T04:03:10.444Z,56.13
2018-12-20T04:03:43.712Z,57.17
2018-12-20T04:04:16.837Z,55.88
2018-12-20T04:04:49.835Z,51.33
2018-12-20T04:05:22.895Z,53.15
2018-12-20T04:05:55.995Z,54.83
2018-12-20T04:06:29.420Z,55.25
2018-12-20T04:07:02.670Z,51.15
2018-12-20T04:07:35.795Z,55.45
2018-12-20T04:09:02.322Z,58.02
2018-12-20T04:09:35.043Z,56.30
2018-12-20T04:10:07.770Z,55.78
2018-12-20T04:10:40.621Z,51.05
2018-12-20T04:11:13.397Z,59.67
2018-12-20T04:11:45.994Z,59.73
2018-12-20T04:12:18.620Z,57.95
2018-12-20T04:12:51.635Z,55.80
2018-12-20T04:13:24.508Z,52.62
2018-12-20T04:13:57.150Z,55.05
2018-12-20T04:14:29.997Z,51.75
2018-12-20T04:15:03.045Z,57.67
2018-12-20T04:15:37.872Z,50.45
2018-12-20T04:16:10.344Z,55.12
2018-12-20T04:16:43.215Z,59.48
2018-12-20T04:17:15.988Z,58.75
2018-12-20T04:17:48.675Z,57.43
2018-12-20T04:18:21.376Z,54.60
2018-12-20T04:18:54.176Z,55.95
2018-12-20T04:19:26.797Z,48.48
2018-12-20T04:19:59.692Z,53.63
2018-12-20T04:20:32.379Z,53.50
2018-12-20T04:21:05.084Z,53.25
2018-12-20T04:21:37.893Z,54.90
2018-12-20T04:22:10.641Z,51.53
2018-12-20T04:22:43.473Z,56.77
2018-12-20T04:23:16.175Z,64.58
2018-12-20T04:23:49.034Z,53.58
2018-12-20T04:24:21.857Z,51.45
2018-12-20T04:24:54.645Z,51.83
2018-12-20T04:25:27.420Z,51.77
2018-12-20T04:26:00.056Z,56.40
2018-12-20T04:26:32.707Z,53.13
2018-12-20T04:27:05.350Z,58.15
2018-12-20T04:27:40.281Z,56.08
2018-12-20T04:28:12.919Z,60.78
2018-12-20T04:28:45.583Z,56.40
2018-12-20T04:29:18.485Z,53.75
2018-12-20T04:29:51.119Z,57.88
2018-12-20T04:30:23.786Z,53.08
2018-12-20T04:30:56.523Z,52.20
2018-12-20T04:31:29.364Z,54.73
2018-12-20T04:32:02.380Z,54.15
2018-12-20T04:32:35.446Z,55.58
2018-12-20T04:33:08.179Z,62.13
2018-12-20T04:33:41.229Z,50.50
2018-12-20T04:34:14.004Z,52.70
2018-12-20T04:34:46.680Z,55.17
2018-12-20T04:35:19.325Z,59.25
2018-12-20T04:35:51.981Z,61.77
2018-12-20T04:36:24.597Z,52.40
2018-12-20T04:36:57.384Z,54.80
2018-12-20T04:37:29.984Z,57.43
2018-12-20T04:38:02.562Z,52.20
2018-12-20T04:38:35.216Z,58.42
2018-12-20T04:39:08.086Z,60.88
2018-12-20T04:39:40.694Z,63.45
2018-12-20T04:40:13.323Z,57.85
2018-12-20T04:40:45.990Z,64.30
2018-12-20T04:41:18.778Z,55.85
2018-12-20T04:41:51.474Z,55.17
2018-12-20T04:42:24.154Z,55.88
2018-12-20T04:42:56.894Z,54.83
2018-12-20T04:43:29.538Z,62.33
2018-12-20T04:44:02.569Z,59.27
2018-12-20T04:44:35.325Z,59.00
2018-12-20T04:45:08.009Z,56.35
2018-12-20T04:45:46.682Z,58.28
2018-12-20T04:46:15.384Z,58.73
2018-12-20T04:46:48.067Z,56.63
2018-12-20T04:47:20.944Z,56.70
2018-12-20T04:47:53.910Z,60.08
2018-12-20T04:48:26.671Z,54.15
2018-12-20T04:48:59.492Z,55.75
2018-12-20T04:49:32.296Z,57.33
2018-12-20T04:50:05.500Z,56.25
2018-12-20T04:50:38.651Z,56.30
2018-12-20T04:51:11.566Z,59.60
2018-12-20T04:51:44.178Z,55.70
2018-12-20T04:52:16.959Z,55.58
2018-12-20T04:52:49.759Z,58.05
2018-12-20T04:53:22.553Z,62.93
2018-12-20T04:53:55.220Z,54.33
2018-12-20T04:54:28.027Z,64.87
2018-12-20T04:55:00.839Z,60.65
2018-12-20T04:55:33.514Z,52.35
2018-12-20T04:56:06.419Z,56.70
2018-12-20T04:56:39.419Z,57.27
2018-12-20T04:57:12.112Z,61.15
2018-12-20T04:57:44.765Z,54.25
2018-12-20T04:58:17.630Z,51.92
2018-12-20T04:58:50.427Z,52.90
2018-12-20T04:59:23.133Z,60.20
2018-12-20T04:59:55.928Z,58.40
2018-12-20T05:00:28.594Z,62.43
2018-12-20T05:01:01.414Z,57.78
2018-12-20T05:01:34.171Z,57.08
2018-12-20T05:02:06.947Z,60.60
2018-12-20T05:02:39.938Z,59.98
2018-12-20T05:03:12.927Z,61.40
2018-12-20T05:03:45.849Z,61.63
2018-12-20T05:04:18.574Z,65.80
2018-12-20T05:04:51.240Z,62.83
2018-12-20T05:05:24.109Z,59.35
2018-12-20T05:05:56.777Z,55.30
2018-12-20T05:06:29.387Z,61.88
2018-12-20T05:07:02.387Z,60.58
2018-12-20T05:07:35.083Z,63.98
2018-12-20T05:08:08.043Z,59.93
2018-12-20T05:08:40.828Z,60.38
2018-12-20T05:09:13.587Z,63.85
2018-12-20T05:09:46.291Z,61.55
2018-12-20T05:10:19.342Z,60.12
2018-12-20T05:10:51.992Z,58.33
2018-12-20T05:11:24.734Z,62.45
2018-12-20T05:11:57.518Z,65.22
2018-12-20T05:12:30.328Z,60.45
2018-12-20T05:13:03.050Z,57.55
2018-12-20T05:13:35.710Z,58.38
2018-12-20T05:14:08.360Z,59.40
2018-12-20T05:14:41.784Z,62.17
2018-12-20T05:15:14.513Z,67.65
2018-12-20T05:15:55.867Z,58.75
2018-12-20T05:16:21.913Z,55.55
2018-12-20T05:16:54.548Z,59.20
2018-12-20T05:17:27.144Z,54.05
2018-12-20T05:17:59.932Z,62.90
2018-12-20T05:18:32.895Z,62.30
2018-12-20T05:19:05.748Z,61.48
2018-12-20T05:19:38.625Z,61.20
2018-12-20T05:20:11.299Z,60.88
2018-12-20T05:20:44.009Z,63.95
2018-12-20T05:21:16.736Z,56.45
2018-12-20T05:21:49.443Z,68.35
2018-12-20T05:22:22.126Z,68.50
2018-12-20T05:22:54.827Z,58.00
2018-12-20T05:23:27.658Z,61.28
2018-12-20T05:24:00.701Z,58.98
2018-12-20T05:24:33.416Z,68.20
2018-12-20T05:25:06.241Z,64.82
2018-12-20T05:25:39.063Z,65.42
2018-12-20T05:26:11.810Z,60.75
2018-12-20T05:26:44.590Z,66.30
2018-12-20T05:27:17.228Z,58.05
2018-12-20T05:27:50.003Z,62.13
2018-12-20T05:28:22.697Z,58.55
2018-12-20T05:28:55.651Z,61.98
2018-12-20T05:29:28.221Z,61.18
2018-12-20T05:30:00.867Z,65.52
2018-12-20T05:30:33.682Z,62.50
2018-12-20T05:31:08.683Z,64.82
2018-12-20T05:31:40.989Z,62.10
2018-12-20T05:32:13.847Z,58.25
2018-12-20T05:32:46.638Z,63.25
2018-12-20T05:33:19.515Z,70.22
2018-12-20T05:33:52.181Z,64.05
2018-12-20T05:34:24.938Z,58.40
2018-12-20T05:34:57.678Z,64.67
2018-12-20T05:35:30.482Z,62.93
2018-12-20T05:36:03.405Z,62.43
2018-12-20T05:36:36.005Z,66.15
2018-12-20T05:37:08.804Z,66.33
2018-12-20T05:37:41.667Z,60.05
2018-12-20T05:38:14.340Z,67.30
2018-12-20T05:38:46.909Z,65.30
2018-12-20T05:39:19.483Z,68.42
2018-12-20T05:39:52.272Z,65.87
2018-12-20T05:40:25.041Z,63.10
2018-12-20T05:40:57.778Z,69.90
2018-12-20T05:41:30.486Z,64.95
2018-12-20T05:42:03.135Z,63.85
2018-12-20T05:42:35.917Z,66.10
2018-12-20T05:43:08.564Z,60.70
2018-12-20T05:43:41.356Z,65.28
2018-12-20T05:44:13.994Z,64.75
2018-12-20T05:44:47.720Z,65.87
2018-12-20T05:45:20.475Z,67.17
2018-12-20T05:45:53.122Z,59.53
2018-12-20T05:46:25.882Z,64.42
2018-12-20T05:46:58.502Z,61.58
2018-12-20T05:47:31.099Z,65.35
2018-12-20T05:48:03.835Z,76.90
2018-12-20T05:48:37.965Z,62.15
2018-12-20T05:49:10.620Z,63.25
2018-12-20T05:49:43.224Z,63.78
2018-12-20T05:50:15.785Z,67.58
2018-12-20T05:50:48.560Z,65.28
2018-12-20T05:51:21.300Z,63.87
2018-12-20T05:51:53.886Z,62.33
2018-12-20T05:52:26.469Z,63.30
2018-12-20T05:52:59.052Z,64.40
2018-12-20T05:53:31.722Z,73.70
2018-12-20T05:54:04.391Z,70.03
2018-12-20T05:54:37.080Z,62.20
2018-12-20T05:55:09.666Z,76.30
2018-12-20T05:55:42.342Z,69.97
2018-12-20T05:56:15.007Z,69.40
2018-12-20T05:56:47.589Z,69.25
2018-12-20T05:57:20.245Z,68.75
2018-12-20T05:57:52.990Z,63.42
2018-12-20T05:58:25.786Z,67.62
2018-12-20T05:58:58.607Z,66.40
2018-12-20T05:59:31.389Z,67.97
2018-12-20T06:00:05.623Z,68.30
2018-12-20T06:00:38.385Z,65.47
2018-12-20T06:01:11.063Z,65.32
2018-12-20T06:01:44.011Z,65.55
2018-12-20T06:02:16.859Z,61.92
2018-12-20T06:02:49.587Z,66.70
2018-12-20T06:03:22.228Z,64.53
2018-12-20T06:03:54.880Z,70.85
2018-12-20T06:04:29.585Z,59.03
2018-12-20T06:05:04.688Z,60.35
2018-12-20T06:05:37.607Z,59.95
2018-12-20T06:06:12.291Z,62.48
2018-12-20T06:06:46.987Z,59.45
2018-12-20T06:07:20.561Z,65.87
2018-12-20T06:07:53.249Z,58.92
2018-12-20T06:08:25.878Z,66.55
2018-12-20T06:08:59.075Z,57.85
2018-12-20T06:09:31.873Z,64.25
2018-12-20T06:10:04.566Z,72.75
2018-12-20T06:10:37.215Z,60.50
2018-12-20T06:11:10.011Z,59.27
2018-12-20T06:11:42.754Z,65.62
2018-12-20T06:12:15.634Z,68.45
2018-12-20T06:12:48.424Z,68.67
2018-12-20T06:13:21.107Z,72.05
2018-12-20T06:13:55.274Z,65.28
2018-12-20T06:14:28.024Z,64.47
2018-12-20T06:15:00.720Z,69.85
2018-12-20T06:15:34.556Z,64.32
2018-12-20T06:16:12.658Z,71.17
2018-12-20T06:16:41.892Z,75.85
2018-12-20T06:17:14.501Z,67.00
2018-12-20T06:17:47.475Z,67.32
2018-12-20T06:18:20.162Z,68.22
2018-12-20T06:18:53.119Z,70.47
2018-12-20T06:19:25.997Z,75.17
2018-12-20T06:19:59.007Z,76.87
2018-12-20T06:20:31.756Z,79.85
2018-12-20T06:21:04.505Z,64.85
2018-12-20T06:21:37.499Z,66.22
2018-12-20T06:22:10.253Z,65.30
2018-12-20T06:22:42.933Z,66.37
2018-12-20T06:23:15.536Z,68.12
2018-12-20T06:23:48.124Z,72.75
2018-12-20T06:24:20.702Z,81.20
2018-12-20T06:24:53.370Z,82.17
2018-12-20T06:25:25.968Z,69.85
2018-12-20T06:25:58.561Z,70.55
2018-12-20T06:26:31.198Z,72.08
2018-12-20T06:27:03.786Z,72.53
2018-12-20T06:27:36.360Z,64.12
2018-12-20T06:28:08.932Z,63.75
2018-12-20T06:28:41.541Z,64.53
2018-12-20T06:29:14.127Z,69.05
2018-12-20T06:29:46.739Z,68.65
2018-12-20T06:30:19.333Z,72.08
2018-12-20T06:30:51.923Z,71.55
2018-12-20T06:31:24.502Z,70.00
2018-12-20T06:31:57.133Z,65.32
2018-12-20T06:32:29.695Z,68.17
2018-12-20T06:33:02.280Z,64.30
2018-12-20T06:33:34.889Z,66.72
2018-12-20T06:34:07.505Z,62.05
2018-12-20T06:34:40.086Z,65.92
2018-12-20T06:35:12.714Z,68.52
2018-12-20T06:35:45.306Z,68.12
2018-12-20T06:36:17.879Z,62.25
2018-12-20T06:36:50.460Z,65.25
2018-12-20T06:37:23.061Z,68.05
2018-12-20T06:37:55.653Z,68.07
2018-12-20T06:38:28.223Z,62.35
2018-12-20T06:39:00.810Z,66.42
2018-12-20T06:39:33.454Z,68.28
2018-12-20T06:40:06.061Z,72.15
2018-12-20T06:40:38.651Z,61.70
2018-12-20T06:41:11.241Z,67.78
2018-12-20T06:41:43.959Z,62.85
2018-12-20T06:42:16.544Z,65.32
2018-12-20T06:42:49.136Z,66.75
2018-12-20T06:43:21.736Z,74.72
2018-12-20T06:43:54.300Z,67.58
2018-12-20T06:44:26.912Z,62.03
2018-12-20T06:44:59.523Z,63.38
2018-12-20T06:45:32.243Z,63.28
2018-12-20T06:46:04.950Z,63.28
2018-12-20T06:46:42.092Z,68.42
2018-12-20T06:47:14.680Z,70.12
2018-12-20T06:47:47.266Z,69.55
2018-12-20T06:48:19.860Z,67.55
2018-12-20T06:48:52.466Z,61.95
2018-12-20T06:49:25.088Z,65.60
2018-12-20T06:49:57.705Z,65.97
2018-12-20T06:50:30.315Z,77.65
2018-12-20T06:51:02.936Z,59.95
2018-12-20T06:51:35.518Z,66.20
2018-12-20T06:52:08.097Z,66.60
2018-12-20T06:52:40.689Z,62.40
2018-12-20T06:53:13.269Z,66.85
2018-12-20T06:53:45.972Z,64.65
2018-12-20T06:54:18.564Z,66.82
2018-12-20T06:54:51.164Z,71.53
2018-12-20T06:55:23.763Z,77.55
2018-12-20T06:55:56.377Z,59.18
2018-12-20T06:56:28.986Z,63.13
2018-12-20T06:57:01.582Z,69.07
2018-12-20T06:57:34.164Z,59.85
2018-12-20T06:58:06.755Z,67.62
2018-12-20T06:58:39.346Z,55.23
2018-12-20T06:59:11.928Z,64.97
2018-12-20T06:59:44.522Z,66.17
2018-12-20T07:00:17.130Z,67.53
2018-12-20T07:00:49.717Z,63.40
2018-12-20T07:01:22.326Z,60.67
2018-12-20T07:01:54.917Z,61.85
2018-12-20T07:02:27.473Z,74.17
2018-12-20T07:03:00.036Z,64.62
2018-12-20T07:03:32.650Z,65.25
2018-12-20T07:04:05.245Z,63.80
2018-12-20T07:04:37.971Z,66.35
2018-12-20T07:05:10.691Z,60.30
2018-12-20T07:05:43.306Z,77.00
2018-12-20T07:06:15.926Z,64.45
2018-12-20T07:06:48.525Z,64.03
2018-12-20T07:07:21.248Z,63.78
2018-12-20T07:07:53.845Z,66.17
2018-12-20T07:08:26.438Z,65.03
2018-12-20T07:08:59.038Z,70.50
2018-12-20T07:09:31.743Z,65.37
2018-12-20T07:10:04.509Z,60.03
2018-12-20T07:10:37.105Z,62.00
2018-12-20T07:11:09.723Z,63.35
2018-12-20T07:11:42.308Z,63.20
2018-12-20T07:12:14.951Z,62.40
2018-12-20T07:12:47.512Z,71.95
2018-12-20T07:13:20.199Z,72.10
2018-12-20T07:13:52.788Z,69.07
2018-12-20T07:14:25.378Z,63.70
2018-12-20T07:14:57.966Z,61.13
2018-12-20T07:15:30.561Z,63.80
2018-12-20T07:16:03.158Z,69.17